sensor_id;sensor_type;location;lat;lon;timestamp;pressure;altitude;pressure_sealevel;temperature;humidity
69351;BME280;57106;51.446;-2.606;2023-02-15T00:02:00;102472.98;;;6.52;67.92
69351;BME280;57106;51.446;-2.606;2023-02-15T00:04:26;102473.07;;;6.48;67.97
69351;BME280;57106;51.446;-2.606;2023-02-15T00:06:51;102472.15;;;6.56;67.70
69351;BME280;57106;51.446;-2.606;2023-02-15T00:09:16;102471.39;;;6.61;67.60
69351;BME280;57106;51.446;-2.606;2023-02-15T00:11:41;102467.35;;;6.58;67.53
69351;BME280;57106;51.446;-2.606;2023-02-15T00:14:09;102464.34;;;6.53;67.75
69351;BME280;57106;51.446;-2.606;2023-02-15T00:16:32;102460.24;;;6.49;67.68
69351;BME280;57106;51.446;-2.606;2023-02-15T00:18:57;102458.17;;;6.43;68.10
69351;BME280;57106;51.446;-2.606;2023-02-15T00:21:23;102456.36;;;6.44;68.22
69351;BME280;57106;51.446;-2.606;2023-02-15T00:23:48;102452.61;;;6.66;67.75
69351;BME280;57106;51.446;-2.606;2023-02-15T00:26:13;102448.81;;;6.64;67.50
69351;BME280;57106;51.446;-2.606;2023-02-15T00:28:39;102440.21;;;6.28;68.29
69351;BME280;57106;51.446;-2.606;2023-02-15T00:31:06;102438.37;;;6.30;68.12
69351;BME280;57106;51.446;-2.606;2023-02-15T00:48:03;102418.62;;;6.43;68.02
69351;BME280;57106;51.446;-2.606;2023-02-15T00:50:29;102412.32;;;6.55;67.92
69351;BME280;57106;51.446;-2.606;2023-02-15T00:52:55;102413.12;;;6.71;67.59
69351;BME280;57106;51.446;-2.606;2023-02-15T00:55:20;102412.49;;;6.67;67.66
69351;BME280;57106;51.446;-2.606;2023-02-15T00:57:52;102411.93;;;6.82;67.35
69351;BME280;57106;51.446;-2.606;2023-02-15T01:00:12;102409.84;;;6.87;67.24
69351;BME280;57106;51.446;-2.606;2023-02-15T01:02:37;102404.89;;;6.94;67.19
69351;BME280;57106;51.446;-2.606;2023-02-15T01:05:02;102400.65;;;6.85;67.56
69351;BME280;57106;51.446;-2.606;2023-02-15T01:07:27;102399.01;;;6.88;67.72
69351;BME280;57106;51.446;-2.606;2023-02-15T01:09:54;102406.07;;;6.98;67.56
69351;BME280;57106;51.446;-2.606;2023-02-15T01:12:19;102403.75;;;7.02;67.57
69351;BME280;57106;51.446;-2.606;2023-02-15T01:14:45;102399.11;;;7.06;67.61
69351;BME280;57106;51.446;-2.606;2023-02-15T01:17:10;102395.68;;;7.15;67.44
69351;BME280;57106;51.446;-2.606;2023-02-15T01:19:35;102399.34;;;7.26;67.38
69351;BME280;57106;51.446;-2.606;2023-02-15T01:22:01;102395.14;;;7.24;67.46
69351;BME280;57106;51.446;-2.606;2023-02-15T01:24:27;102394.03;;;7.30;67.23
69351;BME280;57106;51.446;-2.606;2023-02-15T01:26:53;102390.99;;;7.29;67.31
69351;BME280;57106;51.446;-2.606;2023-02-15T01:29:17;102387.78;;;7.34;67.22
69351;BME280;57106;51.446;-2.606;2023-02-15T01:31:43;102385.95;;;7.36;66.95
69351;BME280;57106;51.446;-2.606;2023-02-15T01:34:09;102377.13;;;7.38;66.96
69351;BME280;57106;51.446;-2.606;2023-02-15T01:36:34;102376.38;;;7.45;66.72
69351;BME280;57106;51.446;-2.606;2023-02-15T01:41:25;102368.70;;;7.28;67.21
69351;BME280;57106;51.446;-2.606;2023-02-15T01:43:56;102365.83;;;7.38;66.86
69351;BME280;57106;51.446;-2.606;2023-02-15T01:46:20;102365.51;;;7.39;66.90
69351;BME280;57106;51.446;-2.606;2023-02-15T01:48:46;102364.24;;;7.41;66.87
69351;BME280;57106;51.446;-2.606;2023-02-15T01:51:07;102363.28;;;7.40;67.01
69351;BME280;57106;51.446;-2.606;2023-02-15T01:53:35;102363.65;;;7.13;67.98
69351;BME280;57106;51.446;-2.606;2023-02-15T01:56:02;102364.86;;;7.22;67.84
69351;BME280;57106;51.446;-2.606;2023-02-15T01:58:25;102365.61;;;7.30;67.61
69351;BME280;57106;51.446;-2.606;2023-02-15T02:00:49;102364.95;;;7.13;68.04
69351;BME280;57106;51.446;-2.606;2023-02-15T02:03:15;102361.74;;;7.16;68.10
69351;BME280;57106;51.446;-2.606;2023-02-15T02:05:40;102355.70;;;7.07;68.51
69351;BME280;57106;51.446;-2.606;2023-02-15T02:08:08;102354.92;;;7.00;68.64
69351;BME280;57106;51.446;-2.606;2023-02-15T02:18:00;102346.85;;;7.22;68.50
69351;BME280;57106;51.446;-2.606;2023-02-15T02:20:28;102340.46;;;7.10;68.98
69351;BME280;57106;51.446;-2.606;2023-02-15T02:27:37;102324.90;;;6.94;69.32
69351;BME280;57106;51.446;-2.606;2023-02-15T02:34:52;102305.85;;;6.63;70.62
69351;BME280;57106;51.446;-2.606;2023-02-15T02:37:19;102302.72;;;6.73;70.38
69351;BME280;57106;51.446;-2.606;2023-02-15T02:39:46;102296.39;;;6.60;70.62
69351;BME280;57106;51.446;-2.606;2023-02-15T02:42:09;102295.85;;;6.46;71.20
69351;BME280;57106;51.446;-2.606;2023-02-15T02:44:34;102287.16;;;6.50;71.43
69351;BME280;57106;51.446;-2.606;2023-02-15T02:46:59;102290.78;;;6.60;71.47
69351;BME280;57106;51.446;-2.606;2023-02-15T02:49:32;102299.94;;;6.39;71.93
69351;BME280;57106;51.446;-2.606;2023-02-15T02:54:13;102290.50;;;6.30;72.40
69351;BME280;57106;51.446;-2.606;2023-02-15T02:56:43;102282.05;;;6.42;72.01
69351;BME280;57106;51.446;-2.606;2023-02-15T02:59:07;102285.11;;;6.29;72.88
69351;BME280;57106;51.446;-2.606;2023-02-15T03:01:32;102283.31;;;6.38;72.38
69351;BME280;57106;51.446;-2.606;2023-02-15T03:03:59;102275.70;;;6.33;72.64
69351;BME280;57106;51.446;-2.606;2023-02-15T03:06:23;102273.72;;;6.47;72.24
69351;BME280;57106;51.446;-2.606;2023-02-15T03:08:48;102270.18;;;6.48;72.07
69351;BME280;57106;51.446;-2.606;2023-02-15T03:11:12;102273.14;;;6.46;72.29
69351;BME280;57106;51.446;-2.606;2023-02-15T03:13:36;102264.16;;;6.43;72.25
69351;BME280;57106;51.446;-2.606;2023-02-15T03:16:02;102256.10;;;6.34;72.28
69351;BME280;57106;51.446;-2.606;2023-02-15T03:18:33;102251.86;;;6.12;73.32
69351;BME280;57106;51.446;-2.606;2023-02-15T03:20:58;102248.99;;;5.90;74.25
69351;BME280;57106;51.446;-2.606;2023-02-15T03:23:20;102245.77;;;5.82;74.56
69351;BME280;57106;51.446;-2.606;2023-02-15T03:25:50;102246.34;;;5.93;74.33
69351;BME280;57106;51.446;-2.606;2023-02-15T03:28:12;102240.71;;;6.02;74.31
69351;BME280;57106;51.446;-2.606;2023-02-15T03:30:38;102237.61;;;6.09;73.63
69351;BME280;57106;51.446;-2.606;2023-02-15T03:33:02;102230.35;;;6.02;74.07
69351;BME280;57106;51.446;-2.606;2023-02-15T03:35:33;102221.21;;;6.03;74.28
69351;BME280;57106;51.446;-2.606;2023-02-15T03:37:59;102210.47;;;6.02;74.41
69351;BME280;57106;51.446;-2.606;2023-02-15T03:40:19;102213.81;;;6.04;74.41
69351;BME280;57106;51.446;-2.606;2023-02-15T03:50:04;102214.36;;;6.13;74.46
69351;BME280;57106;51.446;-2.606;2023-02-15T03:52:26;102211.17;;;6.12;74.18
69351;BME280;57106;51.446;-2.606;2023-02-15T03:54:50;102211.08;;;5.94;74.77
69351;BME280;57106;51.446;-2.606;2023-02-15T03:57:18;102214.15;;;5.97;74.68
69351;BME280;57106;51.446;-2.606;2023-02-15T03:59:41;102212.31;;;5.88;75.01
69351;BME280;57106;51.446;-2.606;2023-02-15T04:02:13;102212.49;;;5.97;75.22
69351;BME280;57106;51.446;-2.606;2023-02-15T04:04:35;102208.17;;;5.91;75.35
69351;BME280;57106;51.446;-2.606;2023-02-15T04:06:58;102206.87;;;6.04;74.72
69351;BME280;57106;51.446;-2.606;2023-02-15T04:09:23;102204.44;;;5.93;74.92
69351;BME280;57106;51.446;-2.606;2023-02-15T04:11:48;102196.51;;;5.89;75.48
69351;BME280;57106;51.446;-2.606;2023-02-15T04:14:15;102191.07;;;5.99;74.79
69351;BME280;57106;51.446;-2.606;2023-02-15T04:16:41;102191.58;;;5.91;74.88
69351;BME280;57106;51.446;-2.606;2023-02-15T04:19:05;102199.57;;;6.19;74.05
69351;BME280;57106;51.446;-2.606;2023-02-15T04:23:57;102195.23;;;6.34;73.77
69351;BME280;57106;51.446;-2.606;2023-02-15T04:26:21;102199.52;;;6.32;73.93
69351;BME280;57106;51.446;-2.606;2023-02-15T04:28:47;102197.87;;;6.25;74.32
69351;BME280;57106;51.446;-2.606;2023-02-15T04:31:12;102197.04;;;6.40;74.02
69351;BME280;57106;51.446;-2.606;2023-02-15T04:33:38;102194.49;;;6.31;73.88
69351;BME280;57106;51.446;-2.606;2023-02-15T04:36:04;102198.17;;;6.34;73.70
69351;BME280;57106;51.446;-2.606;2023-02-15T04:38:28;102198.24;;;6.27;73.84
69351;BME280;57106;51.446;-2.606;2023-02-15T04:40:53;102202.65;;;6.48;73.12
69351;BME280;57106;51.446;-2.606;2023-02-15T04:43:19;102198.53;;;6.55;72.66
69351;BME280;57106;51.446;-2.606;2023-02-15T04:45:48;102191.85;;;6.54;72.42
69351;BME280;57106;51.446;-2.606;2023-02-15T04:48:13;102188.87;;;6.56;72.25
69351;BME280;57106;51.446;-2.606;2023-02-15T04:50:36;102192.18;;;6.39;72.43
69351;BME280;57106;51.446;-2.606;2023-02-15T04:53:02;102188.46;;;6.10;73.16
69351;BME280;57106;51.446;-2.606;2023-02-15T04:55:27;102188.26;;;6.08;73.32
69351;BME280;57106;51.446;-2.606;2023-02-15T04:57:53;102189.20;;;6.14;73.32
69351;BME280;57106;51.446;-2.606;2023-02-15T05:00:18;102201.57;;;6.23;73.11
69351;BME280;57106;51.446;-2.606;2023-02-15T05:02:44;102201.79;;;6.07;73.43
69351;BME280;57106;51.446;-2.606;2023-02-15T05:05:09;102207.18;;;6.24;73.16
69351;BME280;57106;51.446;-2.606;2023-02-15T05:07:34;102205.49;;;6.29;72.82
69351;BME280;57106;51.446;-2.606;2023-02-15T05:09:59;102195.25;;;6.08;73.10
69351;BME280;57106;51.446;-2.606;2023-02-15T05:12:25;102188.79;;;5.98;73.34
69351;BME280;57106;51.446;-2.606;2023-02-15T05:14:51;102184.24;;;5.99;73.79
69351;BME280;57106;51.446;-2.606;2023-02-15T05:29:23;102169.09;;;5.55;75.94
69351;BME280;57106;51.446;-2.606;2023-02-15T05:31:49;102166.92;;;5.72;75.72
69351;BME280;57106;51.446;-2.606;2023-02-15T05:34:14;102167.72;;;5.72;75.71
69351;BME280;57106;51.446;-2.606;2023-02-15T05:41:31;102175.54;;;5.73;75.90
69351;BME280;57106;51.446;-2.606;2023-02-15T05:43:57;102171.64;;;5.78;75.63
69351;BME280;57106;51.446;-2.606;2023-02-15T05:46:23;102169.93;;;5.95;75.09
69351;BME280;57106;51.446;-2.606;2023-02-15T05:48:48;102170.35;;;6.08;74.79
69351;BME280;57106;51.446;-2.606;2023-02-15T05:51:18;102173.18;;;6.12;74.42
69351;BME280;57106;51.446;-2.606;2023-02-15T05:53:40;102178.45;;;6.25;74.08
69351;BME280;57106;51.446;-2.606;2023-02-15T05:56:05;102176.88;;;6.31;73.53
69351;BME280;57106;51.446;-2.606;2023-02-15T05:58:33;102177.12;;;6.36;73.12
69351;BME280;57106;51.446;-2.606;2023-02-15T06:00:57;102180.61;;;6.30;72.69
69351;BME280;57106;51.446;-2.606;2023-02-15T06:03:23;102181.04;;;6.36;72.68
69351;BME280;57106;51.446;-2.606;2023-02-15T06:05:47;102179.82;;;6.37;72.22
69351;BME280;57106;51.446;-2.606;2023-02-15T06:08:12;102176.41;;;6.27;71.71
69351;BME280;57106;51.446;-2.606;2023-02-15T06:10:37;102177.16;;;6.13;70.99
69351;BME280;57106;51.446;-2.606;2023-02-15T06:13:03;102180.48;;;6.02;70.98
69351;BME280;57106;51.446;-2.606;2023-02-15T06:15:29;102178.85;;;5.89;71.82
69351;BME280;57106;51.446;-2.606;2023-02-15T07:13:51;102162.19;;;6.17;74.29
69351;BME280;57106;51.446;-2.606;2023-02-15T07:23:21;102166.26;;;6.41;75.08
69351;BME280;57106;51.446;-2.606;2023-02-15T07:30:39;102163.49;;;6.50;73.56
69351;BME280;57106;51.446;-2.606;2023-02-15T07:33:04;102159.47;;;6.63;73.29
69351;BME280;57106;51.446;-2.606;2023-02-15T07:42:45;102185.29;;;6.53;72.95
69351;BME280;57106;51.446;-2.606;2023-02-15T07:45:21;102190.84;;;6.37;72.68
69351;BME280;57106;51.446;-2.606;2023-02-15T07:50:06;102190.12;;;6.48;73.89
69351;BME280;57106;51.446;-2.606;2023-02-15T08:11:58;102193.93;;;6.85;75.33
69351;BME280;57106;51.446;-2.606;2023-02-15T08:36:11;102182.50;;;7.22;76.71
69351;BME280;57106;51.446;-2.606;2023-02-15T08:57:58;102162.09;;;8.29;74.61
69351;BME280;57106;51.446;-2.606;2023-02-15T09:14:55;102169.13;;;8.92;74.18
69351;BME280;57106;51.446;-2.606;2023-02-15T09:34:19;102157.91;;;9.89;72.56
69351;BME280;57106;51.446;-2.606;2023-02-15T09:36:43;102154.97;;;10.06;72.48
69351;BME280;57106;51.446;-2.606;2023-02-15T09:41:51;102160.76;;;10.51;71.82
69351;BME280;57106;51.446;-2.606;2023-02-15T09:51:33;102152.83;;;10.72;71.05
69351;BME280;57106;51.446;-2.606;2023-02-15T10:01:00;102155.41;;;10.71;71.87
69351;BME280;57106;51.446;-2.606;2023-02-15T10:05:57;102151.20;;;10.73;71.78
69351;BME280;57106;51.446;-2.606;2023-02-15T10:25:23;102155.07;;;11.04;70.92
69351;BME280;57106;51.446;-2.606;2023-02-15T10:42:19;102164.23;;;11.07;70.53
69351;BME280;57106;51.446;-2.606;2023-02-15T11:13:41;102170.86;;;11.90;68.81
69351;BME280;57106;51.446;-2.606;2023-02-15T11:23:18;102178.75;;;12.03;68.66
69351;BME280;57106;51.446;-2.606;2023-02-15T11:28:18;102177.42;;;12.13;68.67
69351;BME280;57106;51.446;-2.606;2023-02-15T11:49:56;102158.52;;;12.44;68.30
69351;BME280;57106;51.446;-2.606;2023-02-15T12:04:36;102146.73;;;13.07;66.33
69351;BME280;57106;51.446;-2.606;2023-02-15T12:38:25;102115.24;;;13.69;65.37
69351;BME280;57106;51.446;-2.606;2023-02-15T13:17:09;102065.97;;;14.01;63.76
69351;BME280;57106;51.446;-2.606;2023-02-15T13:22:01;102060.75;;;14.00;63.45
69351;BME280;57106;51.446;-2.606;2023-02-15T13:34:09;102043.73;;;14.08;62.97
69351;BME280;57106;51.446;-2.606;2023-02-15T14:03:24;102045.34;;;14.04;64.31
69351;BME280;57106;51.446;-2.606;2023-02-15T14:08:08;102032.61;;;14.10;64.34
69351;BME280;57106;51.446;-2.606;2023-02-15T14:25:06;102022.30;;;13.98;65.37
69351;BME280;57106;51.446;-2.606;2023-02-15T14:34:45;102033.00;;;13.62;67.74
69351;BME280;57106;51.446;-2.606;2023-02-15T14:46:50;102058.24;;;12.16;76.39
69351;BME280;57106;51.446;-2.606;2023-02-15T14:54:02;102064.22;;;11.96;77.39
69351;BME280;57106;51.446;-2.606;2023-02-15T15:03:50;102075.78;;;11.64;79.35
69351;BME280;57106;51.446;-2.606;2023-02-15T15:42:43;102095.77;;;10.78;79.74
69351;BME280;57106;51.446;-2.606;2023-02-15T15:52:25;102112.00;;;10.49;80.08
69351;BME280;57106;51.446;-2.606;2023-02-15T16:02:03;102108.45;;;10.88;78.71
69351;BME280;57106;51.446;-2.606;2023-02-15T16:04:25;102109.91;;;10.91;78.04
69351;BME280;57106;51.446;-2.606;2023-02-15T16:16:31;102108.93;;;10.72;77.93
69351;BME280;57106;51.446;-2.606;2023-02-15T16:33:36;102115.22;;;10.64;78.40
69351;BME280;57106;51.446;-2.606;2023-02-15T16:43:17;102113.50;;;10.65;77.84
69351;BME280;57106;51.446;-2.606;2023-02-15T16:45:50;102115.74;;;10.86;77.32
69351;BME280;57106;51.446;-2.606;2023-02-15T16:50:32;102115.65;;;10.91;77.16
69351;BME280;57106;51.446;-2.606;2023-02-15T16:52:56;102118.54;;;11.04;76.45
69351;BME280;57106;51.446;-2.606;2023-02-15T17:00:30;102114.86;;;10.59;77.47
69351;BME280;57106;51.446;-2.606;2023-02-15T17:07:33;102123.00;;;10.63;77.20
69351;BME280;57106;51.446;-2.606;2023-02-15T17:09:55;102121.17;;;10.66;76.90
69351;BME280;57106;51.446;-2.606;2023-02-15T17:19:44;102117.91;;;10.33;77.67
69351;BME280;57106;51.446;-2.606;2023-02-15T17:22:04;102120.48;;;10.47;77.30
69351;BME280;57106;51.446;-2.606;2023-02-15T17:26:55;102124.12;;;10.31;77.72
69351;BME280;57106;51.446;-2.606;2023-02-15T17:46:17;102133.09;;;9.51;79.59
69351;BME280;57106;51.446;-2.606;2023-02-15T18:00:54;102148.39;;;9.42;78.62
69351;BME280;57106;51.446;-2.606;2023-02-15T18:10:33;102150.86;;;9.42;78.69
69351;BME280;57106;51.446;-2.606;2023-02-15T18:13:01;102151.55;;;9.47;78.19
69351;BME280;57106;51.446;-2.606;2023-02-15T18:15:25;102154.28;;;9.47;77.84
69351;BME280;57106;51.446;-2.606;2023-02-15T18:17:50;102161.69;;;9.44;78.07
69351;BME280;57106;51.446;-2.606;2023-02-15T18:20:19;102161.45;;;9.43;77.73
69351;BME280;57106;51.446;-2.606;2023-02-15T18:22:47;102165.87;;;9.29;77.89
69351;BME280;57106;51.446;-2.606;2023-02-15T18:25:11;102166.67;;;9.21;77.92
69351;BME280;57106;51.446;-2.606;2023-02-15T18:27:33;102168.04;;;9.11;78.21
69351;BME280;57106;51.446;-2.606;2023-02-15T18:29:58;102167.26;;;9.17;78.11
69351;BME280;57106;51.446;-2.606;2023-02-15T18:32:28;102168.59;;;9.22;77.86
69351;BME280;57106;51.446;-2.606;2023-02-15T18:34:50;102171.62;;;9.29;77.70
69351;BME280;57106;51.446;-2.606;2023-02-15T18:37:17;102168.40;;;9.31;77.13
69351;BME280;57106;51.446;-2.606;2023-02-15T18:39:44;102165.40;;;9.36;76.92
69351;BME280;57106;51.446;-2.606;2023-02-15T18:49:23;102157.53;;;9.10;76.67
69351;BME280;57106;51.446;-2.606;2023-02-15T18:51:48;102157.34;;;9.08;77.14
69351;BME280;57106;51.446;-2.606;2023-02-15T18:54:17;102159.04;;;9.13;76.87
69351;BME280;57106;51.446;-2.606;2023-02-15T18:56:40;102161.89;;;9.09;76.93
69351;BME280;57106;51.446;-2.606;2023-02-15T18:59:05;102156.92;;;9.02;77.04
69351;BME280;57106;51.446;-2.606;2023-02-15T19:01:31;102158.96;;;8.99;77.06
69351;BME280;57106;51.446;-2.606;2023-02-15T19:03:56;102164.93;;;8.96;77.17
69351;BME280;57106;51.446;-2.606;2023-02-15T19:08:49;102169.31;;;8.96;77.06
69351;BME280;57106;51.446;-2.606;2023-02-15T19:11:16;102169.21;;;8.97;76.83
69351;BME280;57106;51.446;-2.606;2023-02-15T19:13:39;102169.05;;;8.78;77.23
69351;BME280;57106;51.446;-2.606;2023-02-15T19:16:07;102168.57;;;8.92;76.93
69351;BME280;57106;51.446;-2.606;2023-02-15T19:18:30;102169.14;;;8.93;76.59
69351;BME280;57106;51.446;-2.606;2023-02-15T19:20:55;102165.54;;;8.95;76.38
69351;BME280;57106;51.446;-2.606;2023-02-15T19:23:25;102167.52;;;8.87;76.59
69351;BME280;57106;51.446;-2.606;2023-02-15T19:25:49;102167.99;;;8.79;77.10
69351;BME280;57106;51.446;-2.606;2023-02-15T19:30:38;102163.48;;;8.92;76.60
69351;BME280;57106;51.446;-2.606;2023-02-15T19:33:04;102161.10;;;8.71;76.59
69351;BME280;57106;51.446;-2.606;2023-02-15T19:35:33;102159.81;;;8.78;76.57
69351;BME280;57106;51.446;-2.606;2023-02-15T19:37:57;102167.03;;;8.62;77.08
69351;BME280;57106;51.446;-2.606;2023-02-15T19:40:22;102169.64;;;8.55;77.13
69351;BME280;57106;51.446;-2.606;2023-02-15T19:42:45;102167.74;;;8.61;77.24
69351;BME280;57106;51.446;-2.606;2023-02-15T19:45:13;102170.63;;;8.57;77.40
69351;BME280;57106;51.446;-2.606;2023-02-15T19:47:37;102167.01;;;8.54;77.31
69351;BME280;57106;51.446;-2.606;2023-02-15T19:50:19;102169.57;;;8.38;77.82
69351;BME280;57106;51.446;-2.606;2023-02-15T19:52:27;102166.57;;;8.36;77.88
69351;BME280;57106;51.446;-2.606;2023-02-15T19:54:54;102168.59;;;8.34;77.76
69351;BME280;57106;51.446;-2.606;2023-02-15T19:57:17;102165.39;;;8.29;78.08
69351;BME280;57106;51.446;-2.606;2023-02-15T19:59:45;102169.97;;;8.31;77.66
69351;BME280;57106;51.446;-2.606;2023-02-15T20:02:13;102168.57;;;8.10;77.84
69351;BME280;57106;51.446;-2.606;2023-02-15T20:04:35;102170.09;;;8.00;78.39
69351;BME280;57106;51.446;-2.606;2023-02-15T20:07:02;102172.59;;;8.17;77.88
69351;BME280;57106;51.446;-2.606;2023-02-15T20:09:30;102168.04;;;8.10;78.12
69351;BME280;57106;51.446;-2.606;2023-02-15T20:11:53;102165.74;;;7.99;78.58
69351;BME280;57106;51.446;-2.606;2023-02-15T20:14:19;102168.43;;;8.14;78.02
69351;BME280;57106;51.446;-2.606;2023-02-15T20:16:43;102167.16;;;8.19;78.10
69351;BME280;57106;51.446;-2.606;2023-02-15T20:19:08;102171.88;;;8.19;77.93
69351;BME280;57106;51.446;-2.606;2023-02-15T20:21:35;102172.98;;;8.16;78.31
69351;BME280;57106;51.446;-2.606;2023-02-15T20:24:00;102173.51;;;8.28;77.86
69351;BME280;57106;51.446;-2.606;2023-02-15T20:26:25;102173.84;;;8.29;77.62
69351;BME280;57106;51.446;-2.606;2023-02-15T20:28:51;102176.63;;;8.37;77.38
69351;BME280;57106;51.446;-2.606;2023-02-15T20:31:18;102179.95;;;8.28;77.56
69351;BME280;57106;51.446;-2.606;2023-02-15T20:33:41;102182.81;;;8.44;77.42
69351;BME280;57106;51.446;-2.606;2023-02-15T20:36:11;102179.55;;;8.44;77.41
69351;BME280;57106;51.446;-2.606;2023-02-15T20:38:32;102179.26;;;8.46;77.65
69351;BME280;57106;51.446;-2.606;2023-02-15T20:41:00;102178.79;;;8.47;77.64
69351;BME280;57106;51.446;-2.606;2023-02-15T20:43:24;102177.87;;;8.47;77.77
69351;BME280;57106;51.446;-2.606;2023-02-15T20:45:49;102181.95;;;8.42;78.04
69351;BME280;57106;51.446;-2.606;2023-02-15T20:48:15;102182.46;;;8.55;77.81
69351;BME280;57106;51.446;-2.606;2023-02-15T20:50:39;102185.81;;;8.60;77.50
69351;BME280;57106;51.446;-2.606;2023-02-15T20:53:08;102188.13;;;8.76;77.24
69351;BME280;57106;51.446;-2.606;2023-02-15T20:55:31;102189.31;;;8.73;77.00
69351;BME280;57106;51.446;-2.606;2023-02-15T20:57:57;102185.65;;;8.80;76.64
69351;BME280;57106;51.446;-2.606;2023-02-15T21:00:26;102181.87;;;8.86;76.30
69351;BME280;57106;51.446;-2.606;2023-02-15T21:02:51;102180.06;;;8.82;76.43
69351;BME280;57106;51.446;-2.606;2023-02-15T21:05:17;102183.46;;;8.88;75.96
69351;BME280;57106;51.446;-2.606;2023-02-15T21:07:40;102188.09;;;8.94;76.08
69351;BME280;57106;51.446;-2.606;2023-02-15T21:10:06;102185.37;;;8.92;76.09
69351;BME280;57106;51.446;-2.606;2023-02-15T21:12:29;102187.50;;;8.92;76.12
69351;BME280;57106;51.446;-2.606;2023-02-15T21:14:57;102193.77;;;9.03;75.86
69351;BME280;57106;51.446;-2.606;2023-02-15T21:17:21;102192.79;;;9.05;75.64
69351;BME280;57106;51.446;-2.606;2023-02-15T21:19:46;102193.89;;;9.05;75.80
69351;BME280;57106;51.446;-2.606;2023-02-15T21:22:12;102191.44;;;9.07;75.77
69351;BME280;57106;51.446;-2.606;2023-02-15T21:24:36;102192.11;;;9.06;75.92
69351;BME280;57106;51.446;-2.606;2023-02-15T21:27:02;102192.44;;;9.18;75.39
69351;BME280;57106;51.446;-2.606;2023-02-15T21:29:28;102198.36;;;9.25;75.13
69351;BME280;57106;51.446;-2.606;2023-02-15T21:31:52;102197.12;;;9.22;74.82
69351;BME280;57106;51.446;-2.606;2023-02-15T21:34:17;102195.19;;;9.11;75.28
69351;BME280;57106;51.446;-2.606;2023-02-15T21:36:45;102196.10;;;9.32;74.64
69351;BME280;57106;51.446;-2.606;2023-02-15T21:39:14;102194.56;;;9.40;74.28
69351;BME280;57106;51.446;-2.606;2023-02-15T21:41:34;102194.19;;;9.28;74.34
69351;BME280;57106;51.446;-2.606;2023-02-15T21:44:00;102192.78;;;9.25;74.31
69351;BME280;57106;51.446;-2.606;2023-02-15T21:46:26;102194.98;;;9.35;74.21
69351;BME280;57106;51.446;-2.606;2023-02-15T21:48:51;102194.16;;;9.33;74.46
69351;BME280;57106;51.446;-2.606;2023-02-15T21:51:18;102196.75;;;9.23;74.98
69351;BME280;57106;51.446;-2.606;2023-02-15T21:53:45;102197.47;;;9.35;74.65
69351;BME280;57106;51.446;-2.606;2023-02-15T21:56:14;102198.51;;;9.36;74.36
69351;BME280;57106;51.446;-2.606;2023-02-15T21:58:35;102196.37;;;9.22;74.80
69351;BME280;57106;51.446;-2.606;2023-02-15T22:01:05;102198.36;;;9.31;74.91
69351;BME280;57106;51.446;-2.606;2023-02-15T22:03:30;102193.36;;;9.24;74.53
69351;BME280;57106;51.446;-2.606;2023-02-15T22:05:52;102199.00;;;9.18;74.55
69351;BME280;57106;51.446;-2.606;2023-02-15T22:08:15;102202.46;;;9.09;74.66
69351;BME280;57106;51.446;-2.606;2023-02-15T22:10:42;102198.85;;;8.96;75.48
69351;BME280;57106;51.446;-2.606;2023-02-15T22:13:12;102203.07;;;9.06;75.29
69351;BME280;57106;51.446;-2.606;2023-02-15T22:15:34;102202.14;;;9.21;75.04
69351;BME280;57106;51.446;-2.606;2023-02-15T22:17:58;102206.22;;;9.21;75.33
69351;BME280;57106;51.446;-2.606;2023-02-15T22:20:23;102204.52;;;9.31;74.83
69351;BME280;57106;51.446;-2.606;2023-02-15T22:22:54;102209.21;;;9.45;74.52
69351;BME280;57106;51.446;-2.606;2023-02-15T22:25:16;102209.71;;;9.48;74.53
69351;BME280;57106;51.446;-2.606;2023-02-15T22:27:41;102205.56;;;9.49;74.45
69351;BME280;57106;51.446;-2.606;2023-02-15T22:30:17;102206.16;;;9.44;74.34
69351;BME280;57106;51.446;-2.606;2023-02-15T22:32:31;102211.60;;;9.52;74.38
69351;BME280;57106;51.446;-2.606;2023-02-15T22:34:56;102208.83;;;9.67;74.00
69351;BME280;57106;51.446;-2.606;2023-02-15T22:37:22;102210.03;;;9.40;74.67
69351;BME280;57106;51.446;-2.606;2023-02-15T22:39:47;102207.70;;;9.52;74.55
69351;BME280;57106;51.446;-2.606;2023-02-15T22:44:39;102205.71;;;9.73;73.83
69351;BME280;57106;51.446;-2.606;2023-02-15T22:47:04;102206.18;;;9.82;73.53
69351;BME280;57106;51.446;-2.606;2023-02-15T22:49:30;102204.58;;;9.82;73.28
69351;BME280;57106;51.446;-2.606;2023-02-15T22:51:56;102205.25;;;9.84;73.07
69351;BME280;57106;51.446;-2.606;2023-02-15T22:54:21;102199.94;;;9.96;72.89
69351;BME280;57106;51.446;-2.606;2023-02-15T22:56:49;102196.35;;;9.98;72.69
69351;BME280;57106;51.446;-2.606;2023-02-15T22:59:18;102193.86;;;9.84;72.89
69351;BME280;57106;51.446;-2.606;2023-02-15T23:01:39;102186.83;;;9.86;73.10
69351;BME280;57106;51.446;-2.606;2023-02-15T23:04:04;102189.03;;;9.79;73.22
69351;BME280;57106;51.446;-2.606;2023-02-15T23:06:29;102193.47;;;9.75;73.16
69351;BME280;57106;51.446;-2.606;2023-02-15T23:08:55;102192.87;;;9.85;72.82
69351;BME280;57106;51.446;-2.606;2023-02-15T23:11:20;102189.61;;;9.86;72.67
69351;BME280;57106;51.446;-2.606;2023-02-15T23:13:47;102185.82;;;9.95;72.68
69351;BME280;57106;51.446;-2.606;2023-02-15T23:16:13;102177.63;;;10.02;72.58
69351;BME280;57106;51.446;-2.606;2023-02-15T23:18:39;102176.08;;;10.01;72.64
69351;BME280;57106;51.446;-2.606;2023-02-15T23:21:09;102169.98;;;9.89;72.99
69351;BME280;57106;51.446;-2.606;2023-02-15T23:23:31;102168.00;;;10.00;72.55
69351;BME280;57106;51.446;-2.606;2023-02-15T23:25:54;102163.45;;;9.93;72.73
69351;BME280;57106;51.446;-2.606;2023-02-15T23:28:23;102162.37;;;9.94;72.57
69351;BME280;57106;51.446;-2.606;2023-02-15T23:30:45;102166.51;;;9.83;72.52
69351;BME280;57106;51.446;-2.606;2023-02-15T23:33:11;102167.08;;;9.88;72.76
69351;BME280;57106;51.446;-2.606;2023-02-15T23:35:36;102168.82;;;9.88;72.64
69351;BME280;57106;51.446;-2.606;2023-02-15T23:38:01;102165.57;;;9.90;72.24
69351;BME280;57106;51.446;-2.606;2023-02-15T23:40:27;102164.56;;;10.00;71.82